Time;durP1;ratioP1;P1;durP2;ratioP2;P2;SDS_P1;SDS_P2;PMS_P1;PMS_P2;Temp;Humidity;BMP_temperature;BMP_pressure;BME280_temperature;BME280_humidity;BME280_pressure;Samples;Min_cycle;Max_cycle;Signal;HPM_P1;HPM_P2
2022/03/09 00:00:20;;;;;;;1.03;1.03;;;3.50;99.90;;;;;;5018086;28;20206;-84
2022/03/09 00:02:46;;;;;;;0.10;0.10;;;3.40;99.90;;;;;;5023527;28;20269;-84
2022/03/09 00:05:11;;;;;;;0.37;0.17;;;3.40;99.90;;;;;;5022001;28;20225;-84
2022/03/09 00:07:37;;;;;;;0.10;0.10;;;3.40;99.90;;;;;;5020064;28;20209;-84
2022/03/09 00:10:06;;;;;;;0.10;0.10;;;3.30;99.90;;;;;;5024487;28;20201;-84
2022/03/09 00:12:31;;;;;;;0.37;0.37;;;3.30;99.90;;;;;;5026356;28;20259;-84
2022/03/09 00:14:57;;;;;;;0.20;0.20;;;3.20;99.90;;;;;;5023119;28;20299;-84
2022/03/09 00:17:23;;;;;;;0.37;0.33;;;3.20;99.90;;;;;;5024467;28;20566;-84
2022/03/09 00:19:48;;;;;;;1.10;0.93;;;3.10;99.90;;;;;;5018509;28;20217;-85
2022/03/09 00:22:14;;;;;;;0.83;0.20;;;3.10;99.90;;;;;;5022675;28;20193;-84
2022/03/09 00:24:40;;;;;;;0.43;0.43;;;3.10;99.90;;;;;;5022317;28;20293;-84
2022/03/09 00:27:06;;;;;;;0.53;0.53;;;3.10;99.90;;;;;;5023036;28;20218;-85
2022/03/09 00:29:32;;;;;;;0.47;0.47;;;3.10;99.90;;;;;;5021109;28;20189;-84
2022/03/09 00:31:57;;;;;;;0.10;0.10;;;3.10;99.90;;;;;;5024522;28;20197;-84
2022/03/09 00:34:23;;;;;;;2.37;1.07;;;3.00;99.90;;;;;;5020868;28;20190;-84
2022/03/09 00:36:48;;;;;;;0.63;0.63;;;2.90;99.90;;;;;;5018206;28;20193;-84
2022/03/09 00:39:14;;;;;;;0.20;0.20;;;2.80;99.90;;;;;;5023410;28;20432;-84
2022/03/09 00:41:39;;;;;;;3.93;0.20;;;2.70;99.90;;;;;;5021552;28;20233;-84
2022/03/09 00:44:05;;;;;;;0.10;0.10;;;2.80;99.90;;;;;;5023204;28;20292;-85
2022/03/09 00:46:32;;;;;;;0.23;0.23;;;2.80;99.90;;;;;;5023212;28;20209;-84
2022/03/09 00:48:57;;;;;;;1.00;1.00;;;2.80;99.90;;;;;;5022941;28;20189;-84
2022/03/09 00:51:23;;;;;;;0.40;0.40;;;2.80;99.90;;;;;;5020200;28;20918;-84
2022/03/09 00:53:49;;;;;;;0.13;0.13;;;2.70;99.90;;;;;;5020042;28;20196;-85
2022/03/09 00:56:15;;;;;;;0.60;0.60;;;2.80;99.90;;;;;;5023308;28;20248;-84
2022/03/09 00:58:41;;;;;;;0.40;0.40;;;2.70;99.90;;;;;;5021079;28;20188;-84
2022/03/09 01:01:08;;;;;;;0.20;0.20;;;2.50;99.90;;;;;;5023312;28;20308;-85
2022/03/09 01:03:33;;;;;;;0.20;0.20;;;2.40;99.90;;;;;;5023413;28;20215;-85
2022/03/09 01:05:59;;;;;;;3.10;0.47;;;2.20;99.90;;;;;;5023114;28;20202;-85
2022/03/09 01:08:24;;;;;;;0.10;0.10;;;2.10;99.90;;;;;;5022429;28;20193;-84
2022/03/09 01:10:50;;;;;;;1.20;0.30;;;2.00;99.90;;;;;;5020671;28;20207;-84
2022/03/09 01:13:16;;;;;;;0.10;0.10;;;2.00;99.90;;;;;;5040098;28;20279;-84
2022/03/09 01:15:41;;;;;;;0.33;0.33;;;2.00;99.90;;;;;;5023562;28;20182;-85
2022/03/09 01:18:07;;;;;;;0.33;0.33;;;1.90;99.90;;;;;;5025262;28;20665;-84
2022/03/09 01:20:33;;;;;;;0.20;0.20;;;1.90;99.90;;;;;;5016497;28;20216;-84
2022/03/09 01:22:58;;;;;;;0.33;0.33;;;1.80;99.90;;;;;;5023007;28;20217;-84
2022/03/09 01:25:24;;;;;;;0.20;0.20;;;1.70;99.90;;;;;;5020563;28;20299;-84
2022/03/09 01:27:49;;;;;;;0.30;0.30;;;1.60;99.90;;;;;;5021054;28;20189;-84
2022/03/09 01:30:15;;;;;;;0.37;0.37;;;1.60;99.90;;;;;;5021177;28;20214;-84
2022/03/09 01:32:41;;;;;;;0.20;0.20;;;1.50;99.90;;;;;;5023058;28;20256;-84
2022/03/09 01:35:07;;;;;;;0.10;0.10;;;1.60;99.90;;;;;;5019366;28;20675;-85
2022/03/09 01:37:32;;;;;;;0.17;0.17;;;1.70;99.90;;;;;;5019979;28;20189;-84
2022/03/09 01:39:58;;;;;;;0.83;0.80;;;1.80;99.90;;;;;;5020437;28;20215;-84
2022/03/09 01:42:24;;;;;;;0.60;0.53;;;2.00;99.90;;;;;;5022633;28;20208;-84
2022/03/09 01:44:49;;;;;;;0.40;0.40;;;2.10;99.90;;;;;;5023427;28;20213;-84
2022/03/09 01:47:15;;;;;;;0.20;0.20;;;2.20;99.90;;;;;;5024728;28;20186;-85
2022/03/09 01:49:41;;;;;;;4.63;0.53;;;2.20;99.90;;;;;;5021609;28;20212;-85
2022/03/09 01:52:07;;;;;;;0.20;0.20;;;2.10;99.90;;;;;;5017263;28;20286;-84
2022/03/09 01:54:33;;;;;;;0.37;0.37;;;1.90;99.90;;;;;;5024611;28;20192;-84
2022/03/09 01:56:59;;;;;;;0.30;0.30;;;2.00;99.90;;;;;;5026760;28;20186;-85
2022/03/09 01:59:26;;;;;;;0.20;0.20;;;2.00;99.90;;;;;;5025482;28;21293;-85
2022/03/09 02:01:52;;;;;;;0.90;0.37;;;2.00;99.90;;;;;;5022297;28;20579;-84
2022/03/09 02:04:18;;;;;;;0.57;0.57;;;2.00;99.90;;;;;;5024185;28;20202;-84
2022/03/09 02:06:45;;;;;;;0.83;0.83;;;2.10;99.90;;;;;;5024672;28;20774;-85
2022/03/09 02:11:56;;;;;;;0.43;0.43;;;2.10;99.90;;;;;;5027934;28;20699;-84
2022/03/09 02:14:39;;;;;;;0.17;0.17;;;2.10;99.90;;;;;;5025152;28;20198;-84
2022/03/09 02:17:16;;;;;;;0.70;0.50;;;2.10;99.90;;;;;;5027613;28;20243;-85
2022/03/09 02:19:44;;;;;;;0.10;0.10;;;2.20;99.90;;;;;;5026097;28;20210;-84
2022/03/09 02:22:09;;;;;;;0.30;0.30;;;2.20;99.90;;;;;;5025280;28;20190;-84
2022/03/09 02:24:35;;;;;;;0.67;0.63;;;2.40;99.90;;;;;;5026192;28;20223;-84
2022/03/09 02:27:00;;;;;;;0.43;0.43;;;2.30;99.90;;;;;;5024980;28;20678;-84
2022/03/09 02:29:26;;;;;;;0.83;0.83;;;2.20;99.90;;;;;;5021530;28;20695;-84
2022/03/09 02:31:52;;;;;;;0.13;0.13;;;2.10;99.90;;;;;;5026610;28;20182;-84
2022/03/09 02:34:17;;;;;;;0.17;0.17;;;2.00;99.90;;;;;;5025931;28;20189;-84
2022/03/09 02:36:43;;;;;;;0.10;0.10;;;1.90;99.90;;;;;;5024334;28;20260;-84
2022/03/09 02:39:08;;;;;;;0.20;0.20;;;1.90;99.90;;;;;;5022954;28;20184;-85
2022/03/09 02:41:34;;;;;;;0.27;0.17;;;1.90;99.90;;;;;;5025897;28;20208;-84
2022/03/09 02:44:01;;;;;;;0.63;0.63;;;2.00;99.90;;;;;;5026367;28;20494;-85
2022/03/09 02:46:27;;;;;;;0.20;0.20;;;2.10;99.90;;;;;;5026555;28;20194;-84
2022/03/09 02:48:53;;;;;;;0.10;0.10;;;2.10;99.90;;;;;;5023651;28;20182;-84
2022/03/09 02:51:18;;;;;;;0.20;0.20;;;2.10;99.90;;;;;;5026091;28;20244;-84
2022/03/09 02:53:44;;;;;;;0.13;0.13;;;2.10;99.90;;;;;;5023940;28;20190;-84
2022/03/09 02:56:10;;;;;;;0.63;0.63;;;2.10;99.90;;;;;;5019045;28;20333;-84
2022/03/09 02:58:35;;;;;;;1.30;0.93;;;2.20;99.90;;;;;;5024304;28;20247;-84
2022/03/09 03:01:01;;;;;;;0.37;0.37;;;2.10;99.90;;;;;;5023581;28;20202;-84
2022/03/09 03:03:26;;;;;;;0.17;0.17;;;2.30;99.90;;;;;;5027028;28;20237;-84
2022/03/09 03:05:52;;;;;;;0.20;0.20;;;2.30;99.90;;;;;;5026230;28;20243;-85
2022/03/09 03:08:17;;;;;;;0.37;0.37;;;2.20;99.90;;;;;;5025865;28;20277;-84
2022/03/09 03:10:43;;;;;;;0.27;0.27;;;2.20;99.90;;;;;;5023974;28;20209;-84
2022/03/09 03:13:08;;;;;;;0.30;0.30;;;2.20;99.90;;;;;;5025561;28;20328;-84
2022/03/09 03:15:34;;;;;;;0.10;0.10;;;2.10;99.90;;;;;;5024711;28;20188;-84
2022/03/09 03:18:01;;;;;;;0.27;0.27;;;2.00;99.90;;;;;;5026226;28;20177;-85
2022/03/09 03:20:27;;;;;;;0.20;0.20;;;2.00;99.90;;;;;;5021508;28;20205;-84
2022/03/09 03:22:52;;;;;;;0.83;0.83;;;2.10;99.90;;;;;;5023985;28;20193;-84
2022/03/09 03:25:18;;;;;;;0.40;0.40;;;2.10;99.90;;;;;;5022827;28;20206;-84
2022/03/09 03:27:44;;;;;;;0.30;0.30;;;2.00;99.90;;;;;;5020143;28;20273;-85
2022/03/09 03:30:10;;;;;;;0.83;0.30;;;2.00;99.90;;;;;;5023897;28;20618;-84
2022/03/09 03:32:36;;;;;;;0.20;0.20;;;1.90;99.90;;;;;;5020763;28;20290;-84
2022/03/09 03:35:03;;;;;;;0.20;0.20;;;1.70;99.90;;;;;;5024509;28;20343;-84
2022/03/09 03:37:28;;;;;;;0.23;0.23;;;1.70;99.90;;;;;;5021282;28;20695;-84
2022/03/09 03:39:54;;;;;;;0.10;0.10;;;1.60;99.90;;;;;;5017418;28;20352;-84
2022/03/09 03:42:19;;;;;;;0.43;0.43;;;1.50;99.90;;;;;;5025964;28;20197;-84
2022/03/09 03:44:45;;;;;;;1.70;0.53;;;1.20;99.90;;;;;;5023799;28;20221;-84
2022/03/09 03:47:10;;;;;;;0.37;0.30;;;1.20;99.90;;;;;;5025438;28;20182;-84
2022/03/09 03:49:36;;;;;;;0.27;0.27;;;1.30;99.90;;;;;;5024189;28;20190;-84
2022/03/09 03:52:02;;;;;;;0.20;0.20;;;1.30;99.90;;;;;;5024223;28;20663;-84
2022/03/09 03:54:27;;;;;;;0.17;0.13;;;1.30;99.90;;;;;;5023827;28;20655;-84
2022/03/09 03:56:53;;;;;;;0.30;0.30;;;1.20;99.90;;;;;;5023489;28;20295;-84
2022/03/09 03:59:18;;;;;;;5.77;0.83;;;1.20;99.90;;;;;;5023841;28;20221;-84
2022/03/09 04:01:44;;;;;;;0.20;0.20;;;1.20;99.90;;;;;;5025211;28;20213;-84
2022/03/09 04:04:09;;;;;;;0.10;0.10;;;1.00;99.90;;;;;;5017459;28;20205;-84
2022/03/09 04:06:35;;;;;;;0.20;0.20;;;1.00;99.90;;;;;;5023056;28;20254;-84
2022/03/09 04:09:02;;;;;;;0.10;0.10;;;1.00;99.90;;;;;;5025794;28;20179;-84
2022/03/09 04:11:27;;;;;;;0.17;0.17;;;0.80;99.90;;;;;;5023006;28;20229;-85
2022/03/09 04:13:53;;;;;;;0.67;0.30;;;0.70;99.90;;;;;;5025384;28;20289;-84
2022/03/09 04:16:18;;;;;;;0.20;0.20;;;0.80;99.90;;;;;;5021254;28;20239;-84
2022/03/09 04:18:44;;;;;;;0.10;0.10;;;0.80;99.90;;;;;;5025251;28;20193;-83
2022/03/09 04:21:09;;;;;;;0.20;0.20;;;0.90;99.90;;;;;;5023263;28;20216;-84
2022/03/09 04:23:35;;;;;;;0.10;0.10;;;0.90;99.90;;;;;;5024199;28;20215;-84
2022/03/09 04:26:00;;;;;;;0.23;0.23;;;0.90;99.90;;;;;;5024779;28;20192;-84
2022/03/09 04:28:26;;;;;;;0.40;0.40;;;1.00;99.90;;;;;;5019196;28;20663;-85
2022/03/09 04:30:52;;;;;;;1.03;0.50;;;1.10;99.90;;;;;;5025142;28;20287;-84
2022/03/09 04:33:18;;;;;;;0.20;0.20;;;1.10;99.90;;;;;;5019518;28;20614;-85
2022/03/09 04:35:43;;;;;;;0.30;0.30;;;1.00;99.90;;;;;;5025013;28;20186;-84
2022/03/09 04:38:09;;;;;;;0.57;0.50;;;0.90;99.90;;;;;;5019498;28;20683;-84
2022/03/09 04:40:34;;;;;;;0.17;0.17;;;0.80;99.90;;;;;;5023806;28;20581;-84
2022/03/09 04:43:00;;;;;;;0.10;0.10;;;0.70;99.90;;;;;;5022261;28;20659;-84
2022/03/09 04:45:25;;;;;;;0.40;0.33;;;0.60;99.90;;;;;;5023166;28;20579;-84
2022/03/09 04:47:51;;;;;;;0.20;0.20;;;0.50;99.90;;;;;;5022064;28;20207;-84
2022/03/09 04:50:17;;;;;;;0.47;0.37;;;0.30;99.90;;;;;;5015645;28;20256;-84
2022/03/09 04:52:42;;;;;;;0.63;0.63;;;0.20;99.90;;;;;;5021754;28;20192;-84
2022/03/09 04:55:08;;;;;;;2.57;0.63;;;0.20;99.90;;;;;;5015611;28;20211;-84
2022/03/09 04:57:36;;;;;;;0.33;0.33;;;0.20;99.90;;;;;;5022789;28;20191;-85
2022/03/09 05:00:04;;;;;;;0.40;0.40;;;0.10;99.90;;;;;;5024404;28;20561;-84
2022/03/09 05:02:29;;;;;;;0.40;0.40;;;0.10;99.90;;;;;;5023917;28;20227;-85
2022/03/09 05:04:55;;;;;;;0.30;0.30;;;0.10;99.90;;;;;;5022465;28;20219;-84
2022/03/09 05:07:20;;;;;;;0.40;0.23;;;0.00;99.90;;;;;;5020701;28;20182;-84
2022/03/09 05:09:46;;;;;;;0.20;0.20;;;-0.10;99.90;;;;;;5019716;28;20617;-84
2022/03/09 05:12:11;;;;;;;1.80;0.73;;;-0.10;99.90;;;;;;5019362;28;20804;-84
2022/03/09 05:14:37;;;;;;;0.20;0.20;;;-0.20;99.90;;;;;;5017900;28;20853;-84
2022/03/09 05:17:02;;;;;;;0.87;0.50;;;-0.20;99.90;;;;;;5022251;28;20202;-85
2022/03/09 05:19:28;;;;;;;0.47;0.47;;;-0.40;99.90;;;;;;5022637;28;20242;-84
2022/03/09 05:21:53;;;;;;;0.33;0.33;;;-0.50;99.90;;;;;;5023697;28;20191;-84
2022/03/09 05:24:19;;;;;;;3.80;0.73;;;-0.40;99.90;;;;;;5023617;28;20260;-84
2022/03/09 05:26:46;;;;;;;0.30;0.30;;;-0.50;99.90;;;;;;5021197;28;20184;-84
2022/03/09 05:29:15;;;;;;;0.87;0.30;;;-0.50;99.90;;;;;;5025367;28;20192;-84
2022/03/09 05:31:41;;;;;;;0.23;0.20;;;-0.30;99.90;;;;;;5023156;28;20232;-84
2022/03/09 05:34:07;;;;;;;0.50;0.30;;;-0.20;99.90;;;;;;5021919;28;20195;-84
2022/03/09 05:36:33;;;;;;;0.30;0.30;;;0.00;99.90;;;;;;5025518;28;20202;-84
2022/03/09 05:38:58;;;;;;;0.40;0.40;;;0.00;99.90;;;;;;5026554;28;20197;-84
2022/03/09 05:41:24;;;;;;;0.10;0.10;;;0.00;99.90;;;;;;5026271;28;20300;-84
2022/03/09 05:43:50;;;;;;;0.10;0.10;;;0.10;99.90;;;;;;5023071;28;20573;-84
2022/03/09 05:46:16;;;;;;;0.20;0.20;;;0.10;99.90;;;;;;5021453;28;20720;-84
2022/03/09 05:48:42;;;;;;;0.20;0.20;;;0.20;99.90;;;;;;5022796;28;20180;-84
2022/03/09 05:51:07;;;;;;;0.33;0.33;;;0.20;99.90;;;;;;5024761;28;20223;-84
2022/03/09 05:53:33;;;;;;;0.47;0.47;;;0.10;99.90;;;;;;5022948;28;20187;-84
2022/03/09 05:55:59;;;;;;;0.70;0.70;;;0.10;99.90;;;;;;5024387;28;20189;-83
2022/03/09 05:58:24;;;;;;;0.17;0.17;;;-0.10;99.90;;;;;;5026204;28;20278;-84
2022/03/09 06:00:50;;;;;;;0.43;0.43;;;-0.10;99.90;;;;;;5021325;28;20697;-85
2022/03/09 06:03:15;;;;;;;0.90;0.60;;;-0.20;99.90;;;;;;5019296;28;20191;-84
2022/03/09 06:05:41;;;;;;;0.30;0.30;;;-0.20;99.90;;;;;;5025469;28;20276;-84
2022/03/09 06:08:06;;;;;;;0.30;0.30;;;-0.20;99.90;;;;;;5024230;28;20202;-84
2022/03/09 06:10:33;;;;;;;0.43;0.43;;;-0.20;99.90;;;;;;5026389;28;20205;-84
2022/03/09 06:12:58;;;;;;;0.10;0.10;;;-0.10;99.90;;;;;;5020390;28;20291;-84
2022/03/09 06:15:24;;;;;;;0.87;0.67;;;0.10;99.90;;;;;;5026036;28;20272;-84
2022/03/09 06:17:50;;;;;;;0.47;0.30;;;0.30;99.90;;;;;;5027591;28;20190;-84
2022/03/09 06:20:17;;;;;;;2.27;0.80;;;0.50;99.90;;;;;;5026013;28;20214;-84
2022/03/09 06:22:43;;;;;;;0.37;0.33;;;0.60;99.90;;;;;;5021128;28;20331;-84
2022/03/09 06:25:09;;;;;;;1.07;0.37;;;0.50;99.90;;;;;;5020816;28;20241;-82
2022/03/09 06:27:40;;;;;;;1.17;0.80;;;0.40;99.90;;;;;;5018521;28;20635;-82
2022/03/09 06:30:06;;;;;;;0.83;0.30;;;0.60;99.90;;;;;;5025433;28;20217;-81
2022/03/09 06:32:32;;;;;;;0.43;0.43;;;0.80;99.90;;;;;;5023273;28;20282;-82
2022/03/09 06:34:57;;;;;;;0.20;0.20;;;1.00;99.90;;;;;;5019802;28;20229;-84
2022/03/09 06:37:23;;;;;;;0.67;0.57;;;1.10;99.90;;;;;;5021870;28;20217;-84
2022/03/09 06:39:48;;;;;;;0.10;0.10;;;1.30;99.90;;;;;;5019193;28;20691;-84
2022/03/09 06:42:14;;;;;;;0.30;0.30;;;1.60;99.90;;;;;;5028649;28;20194;-84
2022/03/09 06:44:39;;;;;;;0.30;0.23;;;1.80;99.90;;;;;;5023854;28;20342;-84
2022/03/09 06:47:05;;;;;;;0.10;0.10;;;2.00;99.90;;;;;;5019859;28;20198;-84
2022/03/09 06:49:31;;;;;;;0.27;0.27;;;2.20;99.90;;;;;;5022527;28;20189;-84
2022/03/09 06:51:56;;;;;;;1.03;0.50;;;2.40;99.90;;;;;;5024310;28;20197;-84
2022/03/09 06:54:23;;;;;;;1.70;0.77;;;2.50;99.90;;;;;;5027608;28;20197;-83
2022/03/09 06:56:51;;;;;;;0.37;0.30;;;2.50;99.90;;;;;;5028237;28;20193;-84
2022/03/09 06:59:18;;;;;;;0.20;0.20;;;2.60;99.90;;;;;;5025773;28;20664;-84
2022/03/09 07:01:43;;;;;;;0.70;0.70;;;2.50;99.90;;;;;;5023032;28;20283;-84
2022/03/09 07:04:09;;;;;;;0.23;0.23;;;2.40;99.90;;;;;;5025293;28;20248;-84
2022/03/09 07:06:34;;;;;;;0.93;0.93;;;2.50;99.90;;;;;;5023074;28;20209;-85
2022/03/09 07:09:00;;;;;;;0.13;0.13;;;2.70;99.90;;;;;;5027046;28;20190;-85
2022/03/09 07:11:25;;;;;;;0.17;0.17;;;3.00;99.90;;;;;;5023461;28;20212;-84
2022/03/09 07:13:51;;;;;;;1.70;1.60;;;3.30;99.90;;;;;;5021458;28;20186;-84
2022/03/09 07:16:16;;;;;;;2.37;0.50;;;3.50;99.90;;;;;;5026023;28;20655;-84
2022/03/09 07:18:42;;;;;;;0.40;0.40;;;3.60;99.90;;;;;;5025308;28;20191;-84
2022/03/09 07:21:08;;;;;;;0.73;0.73;;;3.80;99.90;;;;;;5024119;28;20218;-84
2022/03/09 07:23:33;;;;;;;3.50;0.33;;;4.00;99.90;;;;;;5024901;28;20205;-84
2022/03/09 07:25:59;;;;;;;0.47;0.47;;;4.10;99.90;;;;;;5021929;28;20285;-84
2022/03/09 07:28:24;;;;;;;0.40;0.40;;;4.10;99.90;;;;;;5023048;28;20185;-86
2022/03/09 07:30:50;;;;;;;0.20;0.20;;;4.30;99.90;;;;;;5020009;28;20211;-86
2022/03/09 07:33:16;;;;;;;0.20;0.20;;;4.50;99.90;;;;;;5022968;28;20270;-84
2022/03/09 07:35:41;;;;;;;0.20;0.20;;;4.60;99.90;;;;;;5024558;28;20186;-85
2022/03/09 07:38:10;;;;;;;0.70;0.70;;;4.70;99.90;;;;;;5020744;28;21217;-84
2022/03/09 07:40:35;;;;;;;1.60;0.70;;;4.80;99.90;;;;;;5025418;28;20213;-84
2022/03/09 07:43:03;;;;;;;1.27;0.87;;;4.90;99.90;;;;;;5019633;28;20190;-84
2022/03/09 07:45:28;;;;;;;0.93;0.50;;;5.00;99.90;;;;;;5024863;28;20296;-84
2022/03/09 07:47:54;;;;;;;1.40;0.97;;;5.10;99.90;;;;;;5020460;28;20269;-84
2022/03/09 07:50:19;;;;;;;1.70;0.80;;;5.20;99.90;;;;;;5026188;28;20220;-85
2022/03/09 07:52:45;;;;;;;0.67;0.60;;;5.30;99.90;;;;;;5023216;28;20183;-84
2022/03/09 07:55:11;;;;;;;1.53;1.47;;;5.40;99.90;;;;;;5024871;28;20195;-84
2022/03/09 07:57:37;;;;;;;0.90;0.87;;;5.60;99.90;;;;;;5024096;28;20190;-84
2022/03/09 08:00:04;;;;;;;0.53;0.50;;;5.80;99.90;;;;;;5018954;28;20207;-83
2022/03/09 08:02:30;;;;;;;1.03;0.73;;;5.90;99.90;;;;;;5024475;28;20696;-83
2022/03/09 08:04:56;;;;;;;2.47;2.30;;;6.00;99.90;;;;;;5023280;28;20233;-84
2022/03/09 08:07:23;;;;;;;1.80;0.43;;;6.10;99.90;;;;;;5021429;28;20189;-84
2022/03/09 08:09:48;;;;;;;0.37;0.30;;;6.20;99.90;;;;;;5024828;28;20203;-84
2022/03/09 08:12:14;;;;;;;0.57;0.50;;;6.30;99.90;;;;;;5022211;28;20278;-84
2022/03/09 08:14:40;;;;;;;0.30;0.30;;;6.50;99.90;;;;;;5021174;28;20273;-85
2022/03/09 08:17:06;;;;;;;1.27;0.60;;;6.30;99.90;;;;;;5022872;28;20201;-83
2022/03/09 08:19:32;;;;;;;1.07;0.20;;;6.40;99.90;;;;;;5020523;28;20183;-80
2022/03/09 08:21:57;;;;;;;0.53;0.53;;;6.40;99.90;;;;;;5016365;28;20190;-82
2022/03/09 08:24:23;;;;;;;2.57;0.53;;;6.60;99.90;;;;;;5016896;28;20238;-82
2022/03/09 08:26:49;;;;;;;0.30;0.30;;;6.80;99.90;;;;;;5024102;28;20242;-81
2022/03/09 08:29:15;;;;;;;0.80;0.73;;;7.10;99.90;;;;;;5025656;28;20216;-82
2022/03/09 08:31:40;;;;;;;0.57;0.53;;;7.20;99.90;;;;;;5026571;28;20273;-83
2022/03/09 08:34:06;;;;;;;0.43;0.43;;;7.10;99.90;;;;;;5026668;28;20198;-83
2022/03/09 08:36:32;;;;;;;1.40;1.03;;;6.80;99.90;;;;;;5024251;28;20182;-83
2022/03/09 08:38:57;;;;;;;2.80;0.77;;;7.10;99.90;;;;;;5023638;28;20189;-83
2022/03/09 08:41:26;;;;;;;1.00;0.97;;;6.80;99.90;;;;;;5030566;28;20280;-82
2022/03/09 08:43:52;;;;;;;1.07;1.07;;;6.80;99.90;;;;;;5031690;28;20236;-83
2022/03/09 08:46:18;;;;;;;0.77;0.67;;;6.90;99.90;;;;;;5031364;28;20171;-82
2022/03/09 08:48:45;;;;;;;1.30;1.13;;;6.80;99.90;;;;;;5029236;28;20187;-82
2022/03/09 08:51:11;;;;;;;3.07;2.77;;;6.90;99.90;;;;;;5029698;28;20289;-83
2022/03/09 08:53:36;;;;;;;0.40;0.40;;;6.40;99.90;;;;;;5029111;28;20182;-82
2022/03/09 08:56:03;;;;;;;0.57;0.50;;;6.50;99.90;;;;;;5027996;28;20214;-82
2022/03/09 08:58:28;;;;;;;0.50;0.50;;;7.10;99.90;;;;;;5029570;28;20194;-82
2022/03/09 09:00:54;;;;;;;0.20;0.20;;;6.90;99.90;;;;;;5024977;28;20707;-83
2022/03/09 09:03:19;;;;;;;0.83;0.83;;;6.80;99.90;;;;;;5031463;28;20554;-82
2022/03/09 09:05:45;;;;;;;2.30;0.87;;;6.90;99.90;;;;;;5029888;28;20284;-82
2022/03/09 09:08:11;;;;;;;0.43;0.43;;;7.20;99.90;;;;;;5030935;28;20194;-82
2022/03/09 09:10:37;;;;;;;0.70;0.67;;;7.80;99.90;;;;;;5032421;28;20222;-82
2022/03/09 09:13:03;;;;;;;2.50;2.30;;;7.90;99.90;;;;;;5030213;28;20247;-83
2022/03/09 09:15:29;;;;;;;0.40;0.40;;;8.10;99.90;;;;;;5025206;28;20189;-81
2022/03/09 09:18:03;;;;;;;1.27;0.87;;;8.40;99.90;;;;;;5022281;28;20603;-83
2022/03/09 09:20:29;;;;;;;1.17;1.07;;;8.60;99.90;;;;;;5022334;28;20721;-83
2022/03/09 09:22:56;;;;;;;0.70;0.70;;;8.80;99.90;;;;;;5030368;28;20189;-83
2022/03/09 09:25:25;;;;;;;2.53;0.50;;;8.70;99.90;;;;;;5028121;28;20215;-83
2022/03/09 09:27:52;;;;;;;2.47;0.90;;;8.80;99.90;;;;;;5028368;28;20211;-82
2022/03/09 09:30:18;;;;;;;0.83;0.83;;;9.00;99.90;;;;;;5030765;28;20244;-82
2022/03/09 09:32:44;;;;;;;2.20;1.60;;;9.10;99.90;;;;;;5032012;28;20186;-82
2022/03/09 09:35:12;;;;;;;0.67;0.67;;;9.30;99.90;;;;;;5031240;28;20189;-82
2022/03/09 09:37:39;;;;;;;1.13;1.07;;;9.20;99.90;;;;;;5030698;28;20185;-82
2022/03/09 09:40:06;;;;;;;0.50;0.50;;;9.00;99.90;;;;;;5021462;28;20210;-82
2022/03/09 09:42:32;;;;;;;0.67;0.60;;;9.40;99.90;;;;;;5023901;28;20608;-82
2022/03/09 09:45:00;;;;;;;0.90;0.60;;;9.70;99.90;;;;;;5027225;28;20204;-83
2022/03/09 09:47:27;;;;;;;1.23;0.70;;;9.90;99.90;;;;;;5030059;28;20657;-82
2022/03/09 09:49:53;;;;;;;3.50;1.60;;;10.20;99.90;;;;;;5027429;28;20224;-82
2022/03/09 09:52:19;;;;;;;0.47;0.47;;;10.40;99.90;;;;;;5024718;28;20186;-83
2022/03/09 09:54:49;;;;;;;1.07;0.93;;;10.60;99.90;;;;;;5028470;28;20252;-82
2022/03/09 09:57:15;;;;;;;0.20;0.20;;;10.80;99.90;;;;;;5022207;28;20284;-82
2022/03/09 09:59:42;;;;;;;1.13;0.50;;;10.90;99.90;;;;;;5029247;28;20562;-82
2022/03/09 10:02:08;;;;;;;0.30;0.30;;;11.00;99.90;;;;;;5028185;28;20198;-83
2022/03/09 10:04:34;;;;;;;0.60;0.47;;;10.90;99.90;;;;;;5020523;28;20202;-82
2022/03/09 10:07:00;;;;;;;2.30;1.27;;;10.80;99.90;;;;;;5021413;28;20186;-82
2022/03/09 10:09:34;;;;;;;0.33;0.33;;;10.50;99.90;;;;;;5024220;28;20195;-83
2022/03/09 10:12:00;;;;;;;0.33;0.33;;;10.80;99.90;;;;;;5020648;28;20633;-81
2022/03/09 10:14:44;;;;;;;1.47;0.73;;;11.00;99.90;;;;;;5018347;28;20218;-80
2022/03/09 10:17:12;;;;;;;0.70;0.70;;;11.10;99.90;;;;;;5026857;28;20231;-81
2022/03/09 10:19:44;;;;;;;0.47;0.47;;;11.20;99.90;;;;;;5029510;28;20190;-81
2022/03/09 10:22:42;;;;;;;0.43;0.43;;;11.30;99.90;;;;;;5025157;28;20249;-80
2022/03/09 10:25:10;;;;;;;0.63;0.63;;;11.30;99.90;;;;;;5026296;28;20217;-80
2022/03/09 10:27:50;;;;;;;0.57;0.57;;;11.50;99.90;;;;;;5021921;28;20729;-81
2022/03/09 10:30:21;;;;;;;0.60;0.60;;;11.60;99.90;;;;;;5029274;28;20216;-81
2022/03/09 10:32:50;;;;;;;0.83;0.63;;;11.70;99.90;;;;;;5023591;28;20183;-80
2022/03/09 10:35:38;;;;;;;1.03;0.70;;;11.50;99.90;;;;;;5024976;28;20660;-80
2022/03/09 10:38:06;;;;;;;1.27;0.80;;;11.50;99.90;;;;;;5025948;28;20191;-80
2022/03/09 10:40:38;;;;;;;0.40;0.40;;;11.50;99.90;;;;;;5026876;28;20214;-81
2022/03/09 10:43:18;;;;;;;1.30;0.40;;;11.60;99.90;;;;;;5023565;28;20192;-80
2022/03/09 10:45:59;;;;;;;0.30;0.30;;;11.50;99.90;;;;;;5025158;28;20210;-80
2022/03/09 10:48:44;;;;;;;1.10;0.90;;;11.70;99.90;;;;;;5023855;28;20205;-80
2022/03/09 10:51:09;;;;;;;0.30;0.30;;;11.80;99.90;;;;;;5025381;28;20202;-80
2022/03/09 10:53:45;;;;;;;0.53;0.50;;;11.60;99.90;;;;;;5025737;28;20191;-80
2022/03/09 10:56:19;;;;;;;0.63;0.63;;;11.80;99.90;;;;;;5025451;28;20190;-81
2022/03/09 10:58:48;;;;;;;2.57;0.77;;;11.80;99.90;;;;;;5023973;28;20237;-80
2022/03/09 11:01:18;;;;;;;2.43;0.60;;;12.10;99.90;;;;;;5026367;28;20675;-81
2022/03/09 11:03:44;;;;;;;0.37;0.37;;;12.00;99.90;;;;;;5022043;28;20321;-81
2022/03/09 11:06:10;;;;;;;0.43;0.43;;;12.10;99.90;;;;;;5023416;28;20618;-80
2022/03/09 11:08:37;;;;;;;1.53;1.43;;;12.10;99.90;;;;;;5024217;28;20183;-81
2022/03/09 11:11:04;;;;;;;0.93;0.87;;;11.80;99.90;;;;;;5022457;28;20210;-83
2022/03/09 11:13:32;;;;;;;4.30;0.67;;;11.70;99.90;;;;;;5024935;28;20175;-80
2022/03/09 11:15:58;;;;;;;0.73;0.43;;;11.70;99.90;;;;;;5021254;28;20182;-81
2022/03/09 11:18:29;;;;;;;1.17;0.80;;;12.00;99.90;;;;;;5024123;28;20187;-80
2022/03/09 11:21:08;;;;;;;0.97;0.97;;;12.30;99.90;;;;;;5024276;28;20209;-81
2022/03/09 11:23:37;;;;;;;1.30;1.20;;;12.20;99.90;;;;;;5024166;28;21182;-81
2022/03/09 11:26:14;;;;;;;1.80;0.97;;;11.80;99.90;;;;;;5016889;28;20543;-81
2022/03/09 11:28:42;;;;;;;1.13;0.80;;;11.00;99.90;;;;;;5023327;28;20181;-83
2022/03/09 11:31:15;;;;;;;0.73;0.73;;;11.40;99.90;;;;;;5023517;28;20206;-83
2022/03/09 11:33:46;;;;;;;2.13;0.77;;;11.30;99.90;;;;;;5025349;28;20193;-83
2022/03/09 11:36:33;;;;;;;1.90;0.53;;;11.80;99.90;;;;;;5016903;28;20273;-80
2022/03/09 11:39:04;;;;;;;0.80;0.73;;;12.00;99.90;;;;;;5023541;28;20213;-83
2022/03/09 11:41:35;;;;;;;2.23;1.07;;;12.00;99.90;;;;;;5023384;28;20199;-81
2022/03/09 11:44:19;;;;;;;1.00;0.90;;;12.00;99.90;;;;;;5021871;28;20209;-81
2022/03/09 11:46:57;;;;;;;0.67;0.50;;;11.50;99.90;;;;;;5019060;28;20178;-81
2022/03/09 11:49:23;;;;;;;1.50;1.10;;;10.90;99.90;;;;;;5020733;28;20269;-82
2022/03/09 11:52:25;;;;;;;1.17;1.07;;;11.00;99.90;;;;;;5019893;28;20206;-82
2022/03/09 11:55:00;;;;;;;1.33;1.00;;;11.10;99.90;;;;;;4995837;28;20657;-81
2022/03/09 11:58:02;;;;;;;0.23;0.23;;;11.00;99.90;;;;;;5012817;28;20197;-82
2022/03/09 12:00:28;;;;;;;0.23;0.23;;;11.60;99.90;;;;;;5022889;28;20217;-82
2022/03/09 12:02:56;;;;;;;0.60;0.50;;;11.70;99.90;;;;;;5019834;28;20227;-82
2022/03/09 12:05:24;;;;;;;0.53;0.53;;;12.10;99.90;;;;;;5022303;28;20263;-81
2022/03/09 12:07:53;;;;;;;0.70;0.60;;;12.30;99.90;;;;;;5024322;28;20178;-82
2022/03/09 12:10:22;;;;;;;0.57;0.57;;;12.00;99.90;;;;;;5023613;28;20206;-81
2022/03/09 12:13:14;;;;;;;1.47;1.37;;;12.30;99.90;;;;;;5025629;28;20449;-81
2022/03/09 12:16:04;;;;;;;5.90;1.10;;;12.10;99.90;;;;;;5023963;28;20957;-81
2022/03/09 12:18:45;;;;;;;2.13;0.97;;;12.40;99.90;;;;;;5043034;28;20672;-81
2022/03/09 12:21:26;;;;;;;2.53;0.43;;;12.10;99.90;;;;;;5019826;28;20202;-81
2022/03/09 12:24:03;;;;;;;0.33;0.33;;;11.80;99.90;;;;;;5025111;28;20239;-81
2022/03/09 12:26:42;;;;;;;0.40;0.40;;;11.50;99.90;;;;;;5021766;28;20182;-81
2022/03/09 12:29:24;;;;;;;1.00;1.00;;;12.00;99.90;;;;;;5023145;28;20212;-81
2022/03/09 12:31:58;;;;;;;0.50;0.50;;;12.30;99.90;;;;;;5026465;28;20202;-83
2022/03/09 12:34:30;;;;;;;0.47;0.47;;;12.00;99.90;;;;;;5023393;28;20282;-82
2022/03/09 12:36:56;;;;;;;1.20;0.60;;;12.20;99.90;;;;;;5012796;28;20273;-81
2022/03/09 12:39:22;;;;;;;1.23;0.93;;;12.60;99.90;;;;;;5020805;28;20247;-81
2022/03/09 12:41:56;;;;;;;2.17;1.13;;;12.80;99.90;;;;;;5020796;28;20233;-81
2022/03/09 12:44:23;;;;;;;2.57;1.67;;;13.00;99.90;;;;;;5018906;28;20699;-82
2022/03/09 12:46:51;;;;;;;1.50;1.40;;;12.30;99.90;;;;;;5019457;28;20211;-83
2022/03/09 12:49:31;;;;;;;0.93;0.70;;;12.40;99.90;;;;;;5020406;28;20563;-83
2022/03/09 12:51:59;;;;;;;0.87;0.80;;;12.20;99.90;;;;;;5020232;28;20658;-83
2022/03/09 12:54:39;;;;;;;1.07;1.03;;;11.90;99.90;;;;;;5024011;28;20194;-83
2022/03/09 12:57:09;;;;;;;0.93;0.87;;;11.60;99.90;;;;;;5021261;28;20727;-83